createdAt,value
2023-04-01T00:00:31.742Z,98408.25
2023-04-01T00:02:59.466Z,98416.72
2023-04-01T00:05:27.477Z,98414.09
2023-04-01T00:07:55.066Z,98406.56
2023-04-01T00:10:22.493Z,98406.31
2023-04-01T00:12:50.178Z,98411.56
2023-04-01T00:15:17.746Z,98396.16
2023-04-01T00:17:45.851Z,98394.22
2023-04-01T00:20:15.333Z,98403.81
2023-04-01T00:22:43.029Z,98403.94
2023-04-01T00:25:10.923Z,98401.16
2023-04-01T00:27:38.385Z,98390.88
2023-04-01T00:30:06.881Z,98396.75
2023-04-01T00:32:35.513Z,98396.97
2023-04-01T00:35:04.117Z,98390.06
2023-04-01T00:37:32.008Z,98402.09
2023-04-01T00:40:00.197Z,98389.38
2023-04-01T00:42:27.926Z,98392.78
2023-04-01T00:44:56.499Z,98387.66
2023-04-01T00:47:27.754Z,98391.19
2023-04-01T00:49:56.256Z,98390.19
2023-04-01T00:52:26.711Z,98392.09
2023-04-01T00:55:00.186Z,98383.44
2023-04-01T00:57:37.658Z,98389.66
2023-04-01T01:00:10.531Z,98384.47
2023-04-01T01:02:39.388Z,98383.56
2023-04-01T01:05:07.356Z,98394.63
2023-04-01T01:07:37.842Z,98386.28
2023-04-01T01:10:35.105Z,98390.00
2023-04-01T01:13:21.527Z,98386.66
2023-04-01T01:15:53.161Z,98397.38
2023-04-01T01:18:34.357Z,98388.84
2023-04-01T01:21:30.072Z,98398.38
2023-04-01T01:24:12.297Z,98401.72
2023-04-01T01:27:03.791Z,98399.47
2023-04-01T01:29:49.411Z,98402.97
2023-04-01T01:32:35.174Z,98393.16
2023-04-01T01:35:21.172Z,98407.03
2023-04-01T01:37:55.016Z,98398.38
2023-04-01T01:40:25.977Z,98388.94
2023-04-01T01:42:59.792Z,98398.44
2023-04-01T01:45:30.350Z,98394.09
2023-04-01T01:47:59.885Z,98399.09
2023-04-01T01:50:30.827Z,98393.09
2023-04-01T01:53:07.429Z,98392.56
2023-04-01T01:55:37.783Z,98396.78
2023-04-01T01:58:17.573Z,98396.16
2023-04-01T02:00:50.537Z,98400.22
2023-04-01T02:03:21.160Z,98396.88
2023-04-01T02:05:53.009Z,98395.97
2023-04-01T02:08:36.966Z,98407.28
2023-04-01T02:11:11.003Z,98403.88
2023-04-01T02:13:52.298Z,98398.88
2023-04-01T02:16:51.315Z,98403.19
2023-04-01T02:19:23.840Z,98407.34
2023-04-01T02:21:58.913Z,98412.63
2023-04-01T02:24:29.721Z,98414.22
2023-04-01T02:26:57.618Z,98404.00
2023-04-01T02:29:26.813Z,98413.34
2023-04-01T02:31:56.196Z,98416.75
2023-04-01T02:34:27.164Z,98416.84
2023-04-01T02:36:56.938Z,98412.63
2023-04-01T02:39:26.843Z,98412.56
2023-04-01T02:41:55.352Z,98414.31
2023-04-01T02:44:23.658Z,98408.41
2023-04-01T02:46:51.294Z,98405.72
2023-04-01T02:49:18.725Z,98406.69
2023-04-01T02:51:46.840Z,98416.97
2023-04-01T02:54:14.653Z,98422.25
2023-04-01T02:56:42.700Z,98427.44
2023-04-01T02:59:10.958Z,98420.66
2023-04-01T03:01:38.610Z,98410.56
2023-04-01T03:04:06.364Z,98410.50
2023-04-01T03:06:33.848Z,98412.22
2023-04-01T03:09:01.308Z,98418.06
2023-04-01T03:11:31.461Z,98415.59
2023-04-01T03:13:59.130Z,98427.44
2023-04-01T03:16:26.806Z,98429.88
2023-04-01T03:18:56.492Z,98429.16
2023-04-01T03:21:25.784Z,98437.66
2023-04-01T03:23:53.497Z,98429.97
2023-04-01T03:26:23.883Z,98437.41
2023-04-01T03:28:51.765Z,98439.88
2023-04-01T03:31:23.260Z,98449.19
2023-04-01T03:33:55.452Z,98438.97
2023-04-01T03:36:23.915Z,98428.59
2023-04-01T03:38:51.729Z,98444.09
2023-04-01T03:41:26.655Z,98444.09
2023-04-01T03:43:55.213Z,98447.56
2023-04-01T03:46:23.114Z,98456.25
2023-04-01T03:48:51.053Z,98453.78
2023-04-01T03:51:18.861Z,98455.44
2023-04-01T03:53:46.484Z,98460.38
2023-04-01T03:56:14.252Z,98468.91
2023-04-01T03:58:42.102Z,98464.75
2023-04-01T04:01:22.364Z,98476.78
2023-04-01T04:03:53.569Z,98474.09
2023-04-01T04:06:23.881Z,98475.78
2023-04-01T04:08:51.950Z,98478.22
2023-04-01T04:11:21.205Z,98480.06
2023-04-01T04:13:49.884Z,98481.97
2023-04-01T04:16:18.744Z,98488.00
2023-04-01T04:18:52.281Z,98482.19
2023-04-01T04:21:20.043Z,98486.63
2023-04-01T04:23:47.701Z,98490.97
2023-04-01T04:26:17.769Z,98486.94
2023-04-01T04:28:51.739Z,98492.97
2023-04-01T04:31:24.842Z,98487.22
2023-04-01T04:33:54.626Z,98489.78
2023-04-01T04:36:23.071Z,98496.13
2023-04-01T04:38:52.245Z,98491.94
2023-04-01T04:41:20.491Z,98488.59
2023-04-01T04:43:53.456Z,98494.75
2023-04-01T04:46:24.023Z,98492.13
2023-04-01T04:48:57.353Z,98502.47
2023-04-01T04:51:26.990Z,98504.00
2023-04-01T04:54:03.068Z,98511.03
2023-04-01T04:56:43.808Z,98505.84
2023-04-01T04:59:11.974Z,98512.84
2023-04-01T05:02:03.016Z,98523.38
2023-04-01T05:04:31.059Z,98523.56
2023-04-01T05:06:58.765Z,98514.13
2023-04-01T05:09:26.302Z,98528.88
2023-04-01T05:11:56.168Z,98520.38
2023-04-01T05:14:25.514Z,98519.69
2023-04-01T05:17:00.958Z,98520.66
2023-04-01T05:19:29.006Z,98524.88
2023-04-01T05:21:56.521Z,98531.22
2023-04-01T05:24:23.994Z,98531.06
2023-04-01T05:26:52.880Z,98531.28
2023-04-01T05:29:21.019Z,98536.34
2023-04-01T05:31:56.319Z,98535.53
2023-04-01T05:34:23.903Z,98523.38
2023-04-01T05:36:51.452Z,98536.34
2023-04-01T05:39:19.290Z,98525.38
2023-04-01T05:41:47.211Z,98535.00
2023-04-01T05:44:14.694Z,98538.63
2023-04-01T05:46:42.858Z,98541.38
2023-04-01T05:49:19.089Z,98546.97
2023-04-01T05:51:46.836Z,98545.63
2023-04-01T05:54:14.473Z,98548.72
2023-04-01T05:56:42.285Z,98544.78
2023-04-01T05:59:13.022Z,98549.41
2023-04-01T06:01:40.698Z,98559.06
2023-04-01T06:04:11.446Z,98561.06
2023-04-01T06:06:41.010Z,98555.41
2023-04-01T06:09:20.192Z,98559.25
2023-04-01T06:11:58.073Z,98558.69
2023-04-01T06:14:44.350Z,98555.09
2023-04-01T06:17:53.681Z,98549.44
2023-04-01T06:20:51.616Z,98545.41
2023-04-01T06:23:58.054Z,98554.88
2023-04-01T06:26:59.552Z,98555.47
2023-04-01T06:29:58.740Z,98551.25
2023-04-01T06:32:47.544Z,98559.97
2023-04-01T06:35:25.999Z,98569.34
2023-04-01T06:38:12.881Z,98566.28
2023-04-01T06:40:49.775Z,98568.56
2023-04-01T06:43:31.430Z,98567.38
2023-04-01T06:47:00.118Z,98573.59
2023-04-01T06:49:59.967Z,98578.31
2023-04-01T06:52:45.887Z,98582.38
2023-04-01T06:55:38.989Z,98587.50
2023-04-01T06:58:27.473Z,98584.31
2023-04-01T07:01:00.582Z,98590.53
2023-04-01T07:04:00.217Z,98586.31
2023-04-01T07:06:29.190Z,98588.84
2023-04-01T07:09:05.478Z,98585.59
2023-04-01T07:11:58.803Z,98584.22
2023-04-01T07:15:13.191Z,98580.66
2023-04-01T07:17:44.399Z,98574.84
2023-04-01T07:20:27.435Z,98591.88
2023-04-01T07:23:11.617Z,98593.97
2023-04-01T07:26:06.766Z,98585.66
2023-04-01T07:28:59.930Z,98586.00
2023-04-01T07:32:08.639Z,98589.63
2023-04-01T07:35:13.827Z,98594.69
2023-04-01T07:38:06.778Z,98584.97
2023-04-01T07:40:49.443Z,98586.66
2023-04-01T07:43:30.392Z,98597.94
2023-04-01T07:46:43.722Z,98597.78
2023-04-01T07:49:18.464Z,98602.91
2023-04-01T07:52:12.238Z,98597.97
2023-04-01T07:54:43.902Z,98600.00
2023-04-01T07:57:47.143Z,98603.69
2023-04-01T08:00:17.748Z,98602.91
2023-04-01T08:03:11.753Z,98605.78
2023-04-01T08:05:47.470Z,98610.03
2023-04-01T08:08:16.625Z,98604.47
2023-04-01T08:11:16.181Z,98602.31
2023-04-01T08:14:09.177Z,98601.50
2023-04-01T08:17:28.661Z,98611.44
2023-04-01T08:20:08.997Z,98612.78
2023-04-01T08:22:48.684Z,98613.28
2023-04-01T08:25:31.144Z,98608.34
2023-04-01T08:28:16.973Z,98608.56
2023-04-01T08:30:57.019Z,98601.09
2023-04-01T08:33:32.029Z,98609.25
2023-04-01T08:36:32.655Z,98603.28
2023-04-01T08:39:17.424Z,98600.91
2023-04-01T08:42:23.854Z,98609.09
2023-04-01T08:45:45.047Z,98607.31
2023-04-01T08:48:18.681Z,98612.63
2023-04-01T08:50:53.246Z,98612.59
2023-04-01T08:53:35.541Z,98610.44
2023-04-01T08:56:23.468Z,98607.53
2023-04-01T08:59:09.311Z,98607.59
2023-04-01T09:02:28.243Z,98608.88
2023-04-01T09:05:17.779Z,98623.56
2023-04-01T09:07:58.128Z,98608.44
2023-04-01T09:10:42.688Z,98613.03
2023-04-01T09:14:07.305Z,98614.53
2023-04-01T09:16:57.127Z,98622.31
2023-04-01T09:19:33.556Z,98611.94
2023-04-01T09:22:14.654Z,98613.66
2023-04-01T09:24:45.476Z,98613.75
2023-04-01T09:27:18.663Z,98614.00
2023-04-01T09:29:59.811Z,98608.50
2023-04-01T09:33:02.957Z,98617.91
2023-04-01T09:35:49.571Z,98620.53
2023-04-01T09:38:23.010Z,98619.69
2023-04-01T09:41:09.539Z,98625.00
2023-04-01T09:44:04.929Z,98621.84
2023-04-01T09:46:59.122Z,98631.59
2023-04-01T09:49:46.815Z,98638.34
2023-04-01T09:52:33.414Z,98635.47
2023-04-01T09:55:27.314Z,98645.75
2023-04-01T09:58:43.704Z,98638.03
2023-04-01T10:02:07.026Z,98646.34
2023-04-01T10:05:02.733Z,98642.53
2023-04-01T10:08:03.835Z,98650.94
2023-04-01T10:10:44.263Z,98651.78
2023-04-01T10:13:38.155Z,98661.50
2023-04-01T10:16:20.988Z,98666.91
2023-04-01T10:19:05.830Z,98668.63
2023-04-01T10:21:58.030Z,98665.44
2023-04-01T10:24:44.540Z,98660.13
2023-04-01T10:27:23.315Z,98662.66
2023-04-01T10:30:51.932Z,98651.72
2023-04-01T10:33:47.918Z,98657.22
2023-04-01T10:36:37.159Z,98666.72
2023-04-01T10:39:36.337Z,98663.97
2023-04-01T10:43:01.960Z,98671.19
2023-04-01T10:45:42.641Z,98661.53
2023-04-01T10:48:47.755Z,98665.03
2023-04-01T10:51:23.089Z,98656.09
2023-04-01T10:54:16.964Z,98660.84
2023-04-01T10:57:02.277Z,98657.72
2023-04-01T11:00:34.759Z,98668.00
2023-04-01T11:03:54.767Z,98669.97
2023-04-01T11:06:57.217Z,98675.28
2023-04-01T11:09:46.747Z,98675.00
2023-04-01T11:12:43.076Z,98678.91
2023-04-01T11:15:19.675Z,98681.78
2023-04-01T11:18:25.754Z,98675.31
2023-04-01T11:21:34.971Z,98674.28
2023-04-01T11:24:14.675Z,98676.97
2023-04-01T11:27:18.092Z,98680.03
2023-04-01T11:30:21.405Z,98666.88
2023-04-01T11:33:32.818Z,98689.19
2023-04-01T11:36:13.598Z,98693.44
2023-04-01T11:39:00.754Z,98701.88
2023-04-01T11:42:20.923Z,98703.97
2023-04-01T11:45:16.664Z,98702.84
2023-04-01T11:48:07.504Z,98704.19
2023-04-01T11:50:53.936Z,98701.66
2023-04-01T11:53:32.565Z,98703.41
2023-04-01T11:56:30.737Z,98692.16
2023-04-01T11:59:04.713Z,98713.75
2023-04-01T12:01:41.444Z,98720.44
2023-04-01T12:04:43.714Z,98713.22
2023-04-01T12:07:50.567Z,98705.28
2023-04-01T12:10:41.674Z,98723.22
2023-04-01T12:13:24.299Z,98725.88
2023-04-01T12:16:11.038Z,98726.69
2023-04-01T12:19:05.817Z,98729.16
2023-04-01T12:21:53.747Z,98731.53
2023-04-01T12:24:52.659Z,98734.72
2023-04-01T12:28:11.072Z,98732.06
2023-04-01T12:30:38.606Z,98720.81
2023-04-01T12:33:26.743Z,98724.16
2023-04-01T12:36:31.729Z,98737.13
2023-04-01T12:39:34.761Z,98731.78
2023-04-01T12:42:21.001Z,98734.31
2023-04-01T12:44:50.704Z,98727.13
2023-04-01T12:47:27.444Z,98735.81
2023-04-01T12:50:07.248Z,98731.75
2023-04-01T12:52:45.525Z,98740.28
2023-04-01T12:55:34.491Z,98736.88
2023-04-01T12:58:39.396Z,98747.84
2023-04-01T13:01:28.609Z,98748.50
2023-04-01T13:04:18.214Z,98756.56
2023-04-01T13:06:57.594Z,98749.63
2023-04-01T13:09:54.033Z,98753.63
2023-04-01T13:12:40.065Z,98760.81
2023-04-01T13:15:26.550Z,98757.28
2023-04-01T13:18:06.618Z,98761.88
2023-04-01T13:20:41.596Z,98764.09
2023-04-01T13:23:27.661Z,98767.34
2023-04-01T13:26:16.642Z,98770.00
2023-04-01T13:28:50.014Z,98775.50
2023-04-01T13:31:29.623Z,98776.91
2023-04-01T13:34:17.955Z,98778.44
2023-04-01T13:37:06.108Z,98777.09
2023-04-01T13:39:42.202Z,98788.91
2023-04-01T13:42:09.882Z,98798.22
2023-04-01T13:45:11.978Z,98797.19
2023-04-01T13:48:10.485Z,98806.50
2023-04-01T13:50:57.094Z,98807.09
2023-04-01T13:53:30.714Z,98807.44
2023-04-01T13:56:16.489Z,98808.47
2023-04-01T13:58:52.751Z,98820.75
2023-04-01T14:01:29.610Z,98817.97
2023-04-01T14:04:19.173Z,98816.09
2023-04-01T14:07:03.184Z,98820.13
2023-04-01T14:10:15.734Z,98820.31
2023-04-01T14:13:08.928Z,98828.59
2023-04-01T14:16:07.585Z,98829.91
2023-04-01T14:18:55.193Z,98835.66
2023-04-01T14:21:34.602Z,98828.75
2023-04-01T14:24:19.378Z,98828.06
2023-04-01T14:27:10.323Z,98822.25
2023-04-01T14:30:21.635Z,98830.91
2023-04-01T14:33:18.887Z,98833.34
2023-04-01T14:36:19.496Z,98850.28
2023-04-01T14:39:39.595Z,98843.22
2023-04-01T14:42:21.915Z,98842.28
2023-04-01T14:45:27.213Z,98845.69
2023-04-01T14:48:28.082Z,98845.47
2023-04-01T14:50:58.667Z,98853.09
2023-04-01T14:53:26.219Z,98849.78
2023-04-01T14:55:54.901Z,98855.88
2023-04-01T14:58:26.551Z,98862.84
2023-04-01T15:01:02.923Z,98855.84
2023-04-01T15:03:32.714Z,98862.47
2023-04-01T15:06:22.127Z,98867.59
2023-04-01T15:09:04.899Z,98880.91
2023-04-01T15:11:53.299Z,98872.03
2023-04-01T15:14:52.512Z,98877.34
2023-04-01T15:17:38.493Z,98877.75
2023-04-01T15:20:36.889Z,98883.06
2023-04-01T15:23:26.275Z,98885.47
2023-04-01T15:25:56.819Z,98893.16
2023-04-01T15:28:59.433Z,98893.84
2023-04-01T15:31:43.729Z,98898.31
2023-04-01T15:34:34.488Z,98903.75
2023-04-01T15:37:23.012Z,98901.84
2023-04-01T15:40:09.141Z,98902.69
2023-04-01T15:42:59.662Z,98908.78
2023-04-01T15:45:57.809Z,98908.91
2023-04-01T15:48:47.558Z,98915.81
2023-04-01T15:51:25.250Z,98919.22
2023-04-01T15:54:23.845Z,98918.44
2023-04-01T15:57:11.536Z,98928.16
2023-04-01T16:00:12.619Z,98924.38
2023-04-01T16:02:52.348Z,98935.34
2023-04-01T16:05:28.328Z,98922.81
2023-04-01T16:07:58.940Z,98940.34
2023-04-01T16:10:35.515Z,98941.25
2023-04-01T16:13:42.665Z,98947.84
2023-04-01T16:16:25.132Z,98956.06
2023-04-01T16:19:14.548Z,98958.31
2023-04-01T16:22:07.940Z,98960.78
2023-04-01T16:24:56.436Z,98964.19
2023-04-01T16:27:31.017Z,98961.06
2023-04-01T16:30:24.444Z,98970.59
2023-04-01T16:32:58.471Z,98971.91
2023-04-01T16:35:38.512Z,98963.47
2023-04-01T16:38:27.897Z,98974.34
2023-04-01T16:41:08.997Z,98980.97
2023-04-01T16:43:36.533Z,98971.25
2023-04-01T16:46:16.476Z,98985.66
2023-04-01T16:48:43.985Z,98985.66
2023-04-01T16:51:16.554Z,98995.72
2023-04-01T16:53:50.712Z,98991.56
2023-04-01T16:56:25.794Z,98987.91
2023-04-01T16:59:02.653Z,98987.91
2023-04-01T17:01:48.963Z,98990.66
2023-04-01T17:04:43.833Z,98993.16
2023-04-01T17:07:58.570Z,98983.41
2023-04-01T17:10:49.038Z,98990.53
2023-04-01T17:13:28.501Z,99000.72
2023-04-01T17:16:15.215Z,98998.81
2023-04-01T17:19:09.027Z,99011.97
2023-04-01T17:21:48.467Z,99005.03
2023-04-01T17:24:46.864Z,99008.69
2023-04-01T17:27:21.211Z,99005.66
2023-04-01T17:30:07.361Z,99002.88
2023-04-01T17:32:43.872Z,99008.03
2023-04-01T17:35:28.083Z,99008.75
2023-04-01T17:38:20.712Z,99007.88
2023-04-01T17:40:59.716Z,99008.44
2023-04-01T17:44:05.739Z,99013.50
2023-04-01T17:46:57.583Z,99007.56
2023-04-01T17:50:11.124Z,99002.44
2023-04-01T17:52:48.508Z,99016.66
2023-04-01T17:55:34.627Z,99017.91
2023-04-01T17:58:21.827Z,99030.53
2023-04-01T18:00:54.057Z,99022.72
2023-04-01T18:03:34.213Z,99031.31
2023-04-01T18:06:04.948Z,99015.66
2023-04-01T18:09:16.768Z,99033.09
2023-04-01T18:12:06.218Z,99017.03
2023-04-01T18:14:42.699Z,99034.56
2023-04-01T18:17:27.703Z,99028.63
2023-04-01T18:19:55.154Z,99026.78
2023-04-01T18:22:40.897Z,99027.84
2023-04-01T18:25:49.216Z,99042.19
2023-04-01T18:28:32.146Z,99047.47
2023-04-01T18:31:02.794Z,99054.91
2023-04-01T18:33:42.564Z,99056.69
2023-04-01T18:36:35.670Z,99057.69
2023-04-01T18:39:10.688Z,99058.84
2023-04-01T18:42:16.851Z,99064.16
2023-04-01T18:44:49.997Z,99069.06
2023-04-01T18:47:34.839Z,99059.56
2023-04-01T18:50:27.768Z,99078.56
2023-04-01T18:53:10.012Z,99075.03
2023-04-01T18:55:48.035Z,99070.06
2023-04-01T18:58:23.208Z,99074.50
2023-04-01T19:00:56.551Z,99076.28
2023-04-01T19:03:57.965Z,99072.53
2023-04-01T19:06:31.592Z,99071.31
2023-04-01T19:09:19.932Z,99063.63
2023-04-01T19:12:09.967Z,99074.66
2023-04-01T19:14:40.664Z,99072.03
2023-04-01T19:17:27.151Z,99068.75
2023-04-01T19:20:03.654Z,99083.31
2023-04-01T19:22:57.275Z,99085.09
2023-04-01T19:25:39.696Z,99083.19
2023-04-01T19:28:44.515Z,99086.09
2023-04-01T19:31:15.194Z,99096.25
2023-04-01T19:34:10.342Z,99090.22
2023-04-01T19:36:57.788Z,99090.28
2023-04-01T19:39:44.488Z,99093.56
2023-04-01T19:42:27.234Z,99102.31
2023-04-01T19:44:57.565Z,99096.88
2023-04-01T19:47:32.421Z,99101.03
2023-04-01T19:50:44.154Z,99101.38
2023-04-01T19:53:38.975Z,99100.69
2023-04-01T19:56:17.814Z,99108.91
2023-04-01T19:59:06.938Z,99107.78
2023-04-01T20:01:57.060Z,99096.38
2023-04-01T20:04:48.537Z,99113.25
2023-04-01T20:07:34.864Z,99106.63
2023-04-01T20:10:11.646Z,99110.53
2023-04-01T20:12:48.629Z,99114.78
2023-04-01T20:15:33.903Z,99106.97
2023-04-01T20:18:14.799Z,99108.56
2023-04-01T20:20:59.049Z,99104.31
2023-04-01T20:23:48.993Z,99102.13
2023-04-01T20:26:23.602Z,99114.78
2023-04-01T20:29:28.160Z,99112.47
2023-04-01T20:32:30.618Z,99109.44
2023-04-01T20:35:23.526Z,99111.41
2023-04-01T20:38:06.167Z,99110.19
2023-04-01T20:40:47.740Z,99110.03
2023-04-01T20:43:29.732Z,99099.75
2023-04-01T20:46:21.751Z,99113.69
2023-04-01T20:49:01.375Z,99113.66
2023-04-01T20:51:36.374Z,99118.00
2023-04-01T20:54:25.675Z,99122.38
2023-04-01T20:57:26.415Z,99118.25
2023-04-01T21:00:03.527Z,99120.63
2023-04-01T21:03:11.568Z,99118.94
2023-04-01T21:05:51.230Z,99121.38
2023-04-01T21:08:39.912Z,99122.50
2023-04-01T21:11:07.301Z,99113.66
2023-04-01T21:14:07.579Z,99119.94
2023-04-01T21:16:53.133Z,99122.38
2023-04-01T21:19:32.726Z,99129.13
2023-04-01T21:22:20.407Z,99130.28
2023-04-01T21:25:21.172Z,99131.06
2023-04-01T21:27:51.443Z,99130.47
2023-04-01T21:30:41.600Z,99133.66
2023-04-01T21:33:43.800Z,99143.31
2023-04-01T21:36:17.262Z,99145.91
2023-04-01T21:38:44.736Z,99145.91
2023-04-01T21:41:31.464Z,99144.22
2023-04-01T21:44:44.367Z,99150.56
2023-04-01T21:47:42.457Z,99137.34
2023-04-01T21:50:13.146Z,99147.59
2023-04-01T21:52:57.934Z,99146.78
2023-04-01T21:56:02.984Z,99153.53
2023-04-01T21:59:07.916Z,99156.19
2023-04-01T22:02:01.829Z,99157.00
2023-04-01T22:04:32.011Z,99156.03
2023-04-01T22:07:18.153Z,99156.91
2023-04-01T22:10:16.745Z,99153.97
2023-04-01T22:12:44.039Z,99155.25
2023-04-01T22:15:20.434Z,99138.41
2023-04-01T22:18:15.336Z,99145.75
2023-04-01T22:21:06.277Z,99153.31
2023-04-01T22:23:48.935Z,99142.09
2023-04-01T22:26:46.007Z,99148.28
2023-04-01T22:29:29.590Z,99155.19
2023-04-01T22:32:20.725Z,99153.25
2023-04-01T22:34:57.406Z,99162.00
2023-04-01T22:37:38.544Z,99159.31
2023-04-01T22:40:25.197Z,99155.72
2023-04-01T22:42:59.059Z,99158.94
2023-04-01T22:45:54.504Z,99167.56
2023-04-01T22:48:39.550Z,99165.81
2023-04-01T22:51:42.942Z,99158.09
2023-04-01T22:54:28.841Z,99165.19
2023-04-01T22:57:03.060Z,99161.72
2023-04-01T22:59:46.055Z,99160.19
2023-04-01T23:02:31.121Z,99157.75
2023-04-01T23:05:02.928Z,99167.94
2023-04-01T23:07:38.054Z,99160.19
2023-04-01T23:10:14.596Z,99157.72
2023-04-01T23:12:42.776Z,99153.13
2023-04-01T23:15:15.582Z,99152.28
2023-04-01T23:17:54.928Z,99164.44
2023-04-01T23:20:52.864Z,99158.22
2023-04-01T23:23:55.100Z,99166.31
2023-04-01T23:26:37.920Z,99168.66
2023-04-01T23:29:10.393Z,99165.22
2023-04-01T23:31:48.293Z,99164.72
2023-04-01T23:34:26.914Z,99170.66
2023-04-01T23:37:02.030Z,99169.38
2023-04-01T23:39:32.367Z,99172.91
2023-04-01T23:42:05.025Z,99165.91
2023-04-01T23:44:34.825Z,99174.81
2023-04-01T23:47:04.726Z,99173.72
2023-04-01T23:49:44.052Z,99173.69
2023-04-01T23:52:14.393Z,99172.59
2023-04-01T23:55:00.899Z,99172.88
2023-04-01T23:57:39.781Z,99168.66
